createdAt,value
2023-05-10T00:00:46.046Z,97913.84
2023-05-10T00:03:48.690Z,97915.41
2023-05-10T00:06:51.316Z,97923.28
2023-05-10T00:09:53.889Z,97921.16
2023-05-10T00:12:57.853Z,97925.50
2023-05-10T00:16:00.581Z,97929.13
2023-05-10T00:19:03.244Z,97924.50
2023-05-10T00:22:05.940Z,97929.56
2023-05-10T00:25:10.248Z,97923.28
2023-05-10T00:28:14.140Z,97922.72
2023-05-10T00:31:16.635Z,97928.38
2023-05-10T00:34:19.267Z,97925.69
2023-05-10T00:37:21.991Z,97928.56
2023-05-10T00:40:24.745Z,97926.19
2023-05-10T00:43:28.570Z,97929.09
2023-05-10T00:46:31.330Z,97926.56
2023-05-10T00:49:33.990Z,97934.00
2023-05-10T00:52:36.682Z,97938.34
2023-05-10T00:55:39.609Z,97940.16
2023-05-10T00:58:43.800Z,97939.22
2023-05-10T01:01:46.512Z,97952.38
2023-05-10T01:04:49.284Z,97949.06
2023-05-10T01:07:51.974Z,97955.09
2023-05-10T01:10:54.622Z,97957.56
2023-05-10T01:13:59.486Z,97960.91
2023-05-10T01:17:03.039Z,97955.28
2023-05-10T01:20:06.415Z,97958.00
2023-05-10T01:23:23.128Z,97959.59
2023-05-10T01:26:52.395Z,97961.53
2023-05-10T01:30:15.887Z,97953.00
2023-05-10T01:33:20.399Z,97964.50
2023-05-10T01:36:27.011Z,97970.59
2023-05-10T01:39:39.469Z,97971.50
2023-05-10T01:42:47.017Z,97967.97
2023-05-10T01:45:54.114Z,97973.84
2023-05-10T01:48:59.977Z,97977.66
2023-05-10T01:52:05.906Z,97984.84
2023-05-10T01:55:10.677Z,97986.94
2023-05-10T01:58:16.449Z,97984.59
2023-05-10T02:01:20.484Z,97987.13
2023-05-10T02:04:25.752Z,97992.84
2023-05-10T02:07:29.356Z,97999.50
2023-05-10T02:10:32.761Z,98000.34
2023-05-10T02:13:36.617Z,97999.56
2023-05-10T02:16:41.082Z,97993.22
2023-05-10T02:19:46.269Z,97988.06
2023-05-10T02:22:50.740Z,97981.72
2023-05-10T02:25:54.075Z,97995.38
2023-05-10T02:28:57.135Z,98002.56
2023-05-10T02:32:00.361Z,98009.69
2023-05-10T02:35:05.250Z,98012.31
2023-05-10T02:38:08.663Z,98014.19
2023-05-10T02:41:11.856Z,98018.16
2023-05-10T02:44:16.635Z,98022.94
2023-05-10T02:47:19.939Z,98012.16
2023-05-10T02:50:24.571Z,98021.19
2023-05-10T02:53:33.526Z,98022.78
2023-05-10T02:56:40.468Z,98019.63
2023-05-10T02:59:43.782Z,98013.75
2023-05-10T03:02:46.615Z,98026.69
2023-05-10T03:05:50.745Z,98018.38
2023-05-10T03:08:53.261Z,98020.31
2023-05-10T03:12:00.691Z,98017.56
2023-05-10T03:15:06.974Z,98026.91
2023-05-10T03:18:11.692Z,98026.09
2023-05-10T03:21:16.123Z,98032.09
2023-05-10T03:24:21.045Z,98031.47
2023-05-10T03:27:24.496Z,98029.81
2023-05-10T03:30:26.907Z,98029.06
2023-05-10T03:33:29.500Z,98024.75
2023-05-10T03:36:33.508Z,98027.53
2023-05-10T03:39:36.087Z,98029.50
2023-05-10T03:42:38.648Z,98040.56
2023-05-10T03:45:41.174Z,98044.72
2023-05-10T03:48:43.909Z,98038.06
2023-05-10T03:51:48.085Z,98047.47
2023-05-10T03:54:50.649Z,98043.53
2023-05-10T03:57:54.751Z,98039.72
2023-05-10T04:00:57.204Z,98043.25
2023-05-10T04:03:59.857Z,98045.47
2023-05-10T04:07:03.898Z,98043.88
2023-05-10T04:10:07.461Z,98046.72
2023-05-10T04:13:10.819Z,98045.94
2023-05-10T04:16:13.717Z,98043.59
2023-05-10T04:19:16.400Z,98042.91
2023-05-10T04:22:20.355Z,98047.38
2023-05-10T04:25:23.080Z,98044.56
2023-05-10T04:28:25.765Z,98049.69
2023-05-10T04:31:29.012Z,98050.06
2023-05-10T04:34:31.761Z,98057.19
2023-05-10T04:37:35.572Z,98049.66
2023-05-10T04:40:38.083Z,98065.88
2023-05-10T04:43:40.646Z,98054.88
2023-05-10T04:46:43.188Z,98060.22
2023-05-10T04:49:46.231Z,98065.88
2023-05-10T04:52:50.251Z,98072.53
2023-05-10T04:55:52.820Z,98070.13
2023-05-10T04:58:55.522Z,98074.53
2023-05-10T05:01:58.108Z,98082.19
2023-05-10T05:05:00.661Z,98081.19
2023-05-10T05:08:05.227Z,98078.25
2023-05-10T05:11:08.094Z,98081.63
2023-05-10T05:14:10.708Z,98085.19
2023-05-10T05:17:13.326Z,98086.53
2023-05-10T05:20:16.451Z,98089.38
2023-05-10T05:23:21.963Z,98094.03
2023-05-10T05:26:24.653Z,98093.50
2023-05-10T05:29:27.275Z,98095.28
2023-05-10T05:32:30.027Z,98094.56
2023-05-10T05:35:32.617Z,98095.22
2023-05-10T05:38:36.660Z,98102.63
2023-05-10T05:41:39.249Z,98099.25
2023-05-10T05:44:42.072Z,98103.69
2023-05-10T05:47:44.809Z,98105.41
2023-05-10T05:50:47.568Z,98115.91
2023-05-10T05:53:51.646Z,98114.16
2023-05-10T05:56:56.158Z,98116.84
2023-05-10T05:59:58.814Z,98118.50
2023-05-10T06:03:01.524Z,98115.31
2023-05-10T06:06:04.152Z,98119.22
2023-05-10T06:09:08.122Z,98116.13
2023-05-10T06:12:10.831Z,98112.25
2023-05-10T06:15:13.905Z,98120.13
2023-05-10T06:18:16.679Z,98130.59
2023-05-10T06:21:19.188Z,98127.19
2023-05-10T06:24:23.433Z,98130.09
2023-05-10T06:27:26.042Z,98129.03
2023-05-10T06:30:29.896Z,98130.72
2023-05-10T06:33:33.077Z,98135.84
2023-05-10T06:36:35.677Z,98135.00
2023-05-10T06:39:39.545Z,98139.09
2023-05-10T06:42:42.230Z,98144.41
2023-05-10T06:45:44.732Z,98148.91
2023-05-10T06:48:47.278Z,98147.22
2023-05-10T06:51:50.026Z,98144.09
2023-05-10T06:54:53.955Z,98150.22
2023-05-10T06:57:56.658Z,98148.31
2023-05-10T07:01:04.219Z,98148.56
2023-05-10T07:04:08.372Z,98154.34
2023-05-10T07:07:11.034Z,98149.34
2023-05-10T07:10:15.181Z,98144.03
2023-05-10T07:13:17.806Z,98146.59
2023-05-10T07:16:20.801Z,98153.22
2023-05-10T07:19:23.470Z,98155.41
2023-05-10T07:22:25.947Z,98146.22
2023-05-10T07:25:29.867Z,98150.97
2023-05-10T07:28:32.481Z,98143.97
2023-05-10T07:31:34.980Z,98152.41
2023-05-10T07:34:37.525Z,98159.13
2023-05-10T07:37:40.296Z,98154.81
2023-05-10T07:40:44.265Z,98156.41
2023-05-10T07:43:46.893Z,98159.53
2023-05-10T07:46:49.752Z,98165.88
2023-05-10T07:49:52.406Z,98161.91
2023-05-10T07:52:54.882Z,98171.44
2023-05-10T07:56:00.396Z,98171.06
2023-05-10T07:59:04.692Z,98174.59
2023-05-10T08:02:07.529Z,98176.53
2023-05-10T08:05:10.440Z,98171.53
2023-05-10T08:08:13.657Z,98172.41
2023-05-10T08:11:18.359Z,98168.16
2023-05-10T08:14:21.408Z,98176.63
2023-05-10T08:17:24.793Z,98181.03
2023-05-10T08:20:27.812Z,98175.16
2023-05-10T08:23:30.295Z,98187.38
2023-05-10T08:26:34.514Z,98180.66
2023-05-10T08:29:48.959Z,98184.00
2023-05-10T08:32:52.991Z,98180.88
2023-05-10T08:35:55.619Z,98184.97
2023-05-10T08:38:58.116Z,98186.47
2023-05-10T08:42:04.516Z,98189.69
2023-05-10T08:45:08.585Z,98186.97
2023-05-10T08:48:12.748Z,98198.66
2023-05-10T08:51:17.492Z,98200.13
2023-05-10T08:54:20.548Z,98207.47
2023-05-10T08:57:24.687Z,98190.75
2023-05-10T09:00:27.420Z,98198.78
2023-05-10T09:03:30.075Z,98199.53
2023-05-10T09:06:33.112Z,98201.16
2023-05-10T09:09:35.969Z,98195.22
2023-05-10T09:12:40.286Z,98202.50
2023-05-10T09:15:43.294Z,98201.91
2023-05-10T09:18:46.003Z,98204.28
2023-05-10T09:21:48.552Z,98221.78
2023-05-10T09:25:05.585Z,98216.31
2023-05-10T09:28:10.458Z,98218.38
2023-05-10T09:31:13.741Z,98215.69
2023-05-10T09:34:20.042Z,98220.06
2023-05-10T09:37:31.306Z,98212.97
2023-05-10T09:40:34.084Z,98213.84
2023-05-10T09:43:40.979Z,98223.00
2023-05-10T09:46:43.638Z,98225.94
2023-05-10T09:49:46.269Z,98222.34
2023-05-10T09:52:51.397Z,98247.38
2023-05-10T09:55:53.897Z,98220.16
2023-05-10T09:59:05.647Z,98226.88
2023-05-10T10:02:08.613Z,98218.59
2023-05-10T10:05:11.762Z,98224.94
2023-05-10T10:08:15.222Z,98219.41
2023-05-10T10:11:18.110Z,98227.31
2023-05-10T10:14:22.298Z,98226.53
2023-05-10T10:17:26.423Z,98223.22
2023-05-10T10:20:31.099Z,98230.63
2023-05-10T10:23:33.861Z,98218.78
2023-05-10T10:26:39.318Z,98210.16
2023-05-10T10:29:50.436Z,98218.16
2023-05-10T10:33:20.617Z,98218.28
2023-05-10T10:36:31.372Z,98217.69
2023-05-10T10:39:34.346Z,98220.69
2023-05-10T10:42:47.019Z,98219.00
2023-05-10T10:46:12.353Z,98220.59
2023-05-10T10:49:18.194Z,98220.59
2023-05-10T10:52:27.733Z,98217.41
2023-05-10T10:55:31.331Z,98220.41
2023-05-10T10:58:34.353Z,98235.00
2023-05-10T11:01:38.338Z,98221.94
2023-05-10T11:04:47.468Z,98231.47
2023-05-10T11:07:53.916Z,98244.69
2023-05-10T11:11:08.847Z,98232.25
2023-05-10T11:14:12.106Z,98234.97
2023-05-10T11:17:30.327Z,98247.41
2023-05-10T11:20:40.843Z,98241.28
2023-05-10T11:23:52.230Z,98233.72
2023-05-10T11:26:55.653Z,98235.06
2023-05-10T11:29:58.033Z,98249.31
2023-05-10T11:33:02.229Z,98234.31
2023-05-10T11:36:04.921Z,98232.84
2023-05-10T11:39:07.835Z,98241.53
2023-05-10T11:42:12.138Z,98243.50
2023-05-10T11:45:14.830Z,98250.31
2023-05-10T11:48:23.232Z,98251.03
2023-05-10T11:51:26.882Z,98249.78
2023-05-10T11:54:29.573Z,98251.50
2023-05-10T11:57:33.199Z,98256.50
2023-05-10T12:00:36.031Z,98268.69
2023-05-10T12:03:40.795Z,98263.75
2023-05-10T12:06:43.665Z,98267.69
2023-05-10T12:09:46.591Z,98279.34
2023-05-10T12:12:49.716Z,98283.94
2023-05-10T12:15:52.245Z,98272.88
2023-05-10T12:18:59.138Z,98281.72
2023-05-10T12:22:01.740Z,98280.81
2023-05-10T12:25:04.948Z,98279.63
2023-05-10T12:28:09.443Z,98283.47
2023-05-10T12:31:11.974Z,98287.13
2023-05-10T12:34:25.154Z,98289.16
2023-05-10T12:37:30.205Z,98278.84
2023-05-10T12:40:32.728Z,98279.25
2023-05-10T12:43:36.441Z,98280.00
2023-05-10T12:46:39.052Z,98280.38
2023-05-10T12:49:43.099Z,98285.16
2023-05-10T12:52:45.836Z,98281.59
2023-05-10T12:55:48.422Z,98286.38
2023-05-10T12:58:51.858Z,98282.41
2023-05-10T13:01:54.388Z,98281.16
2023-05-10T13:04:58.981Z,98282.53
2023-05-10T13:08:02.092Z,98273.03
2023-05-10T13:11:05.178Z,98285.66
2023-05-10T13:14:08.169Z,98280.09
2023-05-10T13:17:10.872Z,98284.88
2023-05-10T13:20:15.809Z,98274.03
2023-05-10T13:23:18.359Z,98264.56
2023-05-10T13:26:21.200Z,98277.06
2023-05-10T13:29:23.746Z,98277.19
2023-05-10T13:32:26.572Z,98270.50
2023-05-10T13:35:30.733Z,98271.47
2023-05-10T13:38:33.351Z,98269.75
2023-05-10T13:41:35.864Z,98267.16
2023-05-10T13:44:39.849Z,98271.81
2023-05-10T13:47:42.509Z,98260.50
2023-05-10T13:50:47.038Z,98250.28
2023-05-10T13:53:49.627Z,98258.63
2023-05-10T13:56:52.288Z,98254.25
2023-05-10T13:59:55.939Z,98254.25
2023-05-10T14:03:00.490Z,98254.22
2023-05-10T14:06:04.641Z,98249.44
2023-05-10T14:09:07.172Z,98242.38
2023-05-10T14:12:09.790Z,98243.56
2023-05-10T14:15:12.959Z,98248.72
2023-05-10T14:18:15.638Z,98249.13
2023-05-10T14:21:19.656Z,98242.38
2023-05-10T14:24:22.484Z,98243.94
2023-05-10T14:27:25.465Z,98252.81
2023-05-10T14:30:28.099Z,98246.09
2023-05-10T14:33:30.624Z,98243.63
2023-05-10T14:36:34.526Z,98240.41
2023-05-10T14:39:37.045Z,98246.53
2023-05-10T14:42:39.690Z,98240.97
2023-05-10T14:45:42.359Z,98237.41
2023-05-10T14:48:44.948Z,98244.94
2023-05-10T14:51:49.049Z,98248.72
2023-05-10T14:54:51.552Z,98253.88
2023-05-10T14:57:54.216Z,98247.81
2023-05-10T15:00:57.832Z,98252.09
2023-05-10T15:04:01.040Z,98233.41
2023-05-10T15:07:05.505Z,98249.06
2023-05-10T15:10:09.408Z,98244.94
2023-05-10T15:13:13.146Z,98245.50
2023-05-10T15:16:15.957Z,98235.78
2023-05-10T15:19:18.624Z,98242.91
2023-05-10T15:22:23.247Z,98245.50
2023-05-10T15:25:25.973Z,98246.31
2023-05-10T15:28:28.491Z,98241.97
2023-05-10T15:31:31.290Z,98246.56
2023-05-10T15:34:35.096Z,98246.06
2023-05-10T15:37:40.973Z,98254.44
2023-05-10T15:40:43.502Z,98248.56
2023-05-10T15:43:46.160Z,98255.16
2023-05-10T15:46:49.207Z,98250.22
2023-05-10T15:49:51.894Z,98252.38
2023-05-10T15:52:55.835Z,98256.69
2023-05-10T15:55:58.473Z,98260.94
2023-05-10T15:59:01.166Z,98269.22
2023-05-10T16:02:04.362Z,98257.81
2023-05-10T16:05:06.951Z,98258.91
2023-05-10T16:08:10.932Z,98263.78
2023-05-10T16:11:13.724Z,98267.75
2023-05-10T16:14:16.267Z,98260.19
2023-05-10T16:17:20.338Z,98259.00
2023-05-10T16:20:23.070Z,98268.53
2023-05-10T16:23:27.998Z,98268.16
2023-05-10T16:26:30.635Z,98262.19
2023-05-10T16:29:33.225Z,98264.47
2023-05-10T16:32:36.073Z,98266.84
2023-05-10T16:35:38.589Z,98261.00
2023-05-10T16:38:42.557Z,98271.31
2023-05-10T16:41:45.390Z,98264.56
2023-05-10T16:44:48.075Z,98270.88
2023-05-10T16:47:51.061Z,98270.88
2023-05-10T16:50:53.618Z,98264.44
2023-05-10T16:53:57.624Z,98268.34
2023-05-10T16:57:01.267Z,98271.34
2023-05-10T17:00:04.443Z,98284.72
2023-05-10T17:03:07.074Z,98281.91
2023-05-10T17:06:10.157Z,98275.78
2023-05-10T17:09:14.352Z,98278.09
2023-05-10T17:12:17.189Z,98285.25
2023-05-10T17:15:20.951Z,98284.44
2023-05-10T17:18:23.818Z,98283.88
2023-05-10T17:21:27.715Z,98281.59
2023-05-10T17:24:32.907Z,98287.09
2023-05-10T17:27:35.677Z,98282.97
2023-05-10T17:30:38.274Z,98288.47
2023-05-10T17:33:40.886Z,98293.31
2023-05-10T17:36:43.487Z,98294.84
2023-05-10T17:39:47.466Z,98299.53
2023-05-10T17:42:50.130Z,98302.47
2023-05-10T17:45:52.985Z,98300.63
2023-05-10T17:48:55.775Z,98302.09
2023-05-10T17:51:58.703Z,98297.13
2023-05-10T17:55:02.716Z,98311.13
2023-05-10T17:58:05.352Z,98306.97
2023-05-10T18:01:08.022Z,98306.94
2023-05-10T18:04:10.550Z,98310.03
2023-05-10T18:07:13.522Z,98317.03
2023-05-10T18:10:17.392Z,98319.28
2023-05-10T18:13:20.025Z,98308.47
2023-05-10T18:16:22.872Z,98311.84
2023-05-10T18:19:25.713Z,98313.69
2023-05-10T18:22:28.255Z,98321.16
2023-05-10T18:25:32.354Z,98316.22
2023-05-10T18:28:34.921Z,98322.34
2023-05-10T18:31:37.576Z,98323.16
2023-05-10T18:34:40.178Z,98322.81
2023-05-10T18:37:43.193Z,98318.47
2023-05-10T18:40:47.066Z,98324.63
2023-05-10T18:43:49.608Z,98323.25
2023-05-10T18:46:54.183Z,98321.72
2023-05-10T18:49:57.171Z,98325.50
2023-05-10T18:52:59.681Z,98331.66
2023-05-10T18:56:03.574Z,98332.22
2023-05-10T18:59:06.291Z,98327.47
2023-05-10T19:02:09.029Z,98335.25
2023-05-10T19:05:11.782Z,98335.25
2023-05-10T19:08:14.524Z,98327.72
2023-05-10T19:11:18.422Z,98335.63
2023-05-10T19:14:21.380Z,98335.00
2023-05-10T19:17:24.257Z,98344.78
2023-05-10T19:20:28.226Z,98345.50
2023-05-10T19:23:32.362Z,98338.03
2023-05-10T19:26:36.406Z,98343.00
2023-05-10T19:29:39.122Z,98345.69
2023-05-10T19:32:44.159Z,98346.66
2023-05-10T19:35:46.998Z,98351.09
2023-05-10T19:38:49.946Z,98357.03
2023-05-10T19:41:53.896Z,98357.28
2023-05-10T19:44:57.518Z,98352.13
2023-05-10T19:48:00.170Z,98358.19
2023-05-10T19:51:04.558Z,98357.09
2023-05-10T19:54:08.493Z,98356.41
2023-05-10T19:57:13.986Z,98356.03
2023-05-10T20:00:17.452Z,98359.16
2023-05-10T20:03:20.005Z,98353.13
2023-05-10T20:06:22.584Z,98357.63
2023-05-10T20:09:25.197Z,98352.47
2023-05-10T20:12:29.054Z,98352.31
2023-05-10T20:15:31.759Z,98357.88
2023-05-10T20:18:34.343Z,98357.19
2023-05-10T20:21:36.954Z,98358.94
2023-05-10T20:24:39.462Z,98355.75
2023-05-10T20:27:43.511Z,98360.03
2023-05-10T20:30:46.113Z,98359.94
2023-05-10T20:33:48.735Z,98356.03
2023-05-10T20:36:51.347Z,98355.66
2023-05-10T20:39:54.052Z,98359.50
2023-05-10T20:42:58.134Z,98363.75
2023-05-10T20:46:05.188Z,98354.72
2023-05-10T20:49:09.437Z,98358.91
2023-05-10T20:52:12.524Z,98357.97
2023-05-10T20:55:15.074Z,98359.94
2023-05-10T20:58:19.129Z,98348.88
2023-05-10T21:01:21.718Z,98356.22
2023-05-10T21:04:24.620Z,98352.69
2023-05-10T21:07:27.288Z,98349.56
2023-05-10T21:10:29.904Z,98350.09
2023-05-10T21:13:34.000Z,98343.38
2023-05-10T21:16:36.837Z,98355.44
2023-05-10T21:19:39.492Z,98348.50
2023-05-10T21:22:42.214Z,98354.00
2023-05-10T21:25:44.961Z,98352.00
2023-05-10T21:28:49.073Z,98345.22
2023-05-10T21:31:51.645Z,98344.63
2023-05-10T21:34:54.340Z,98344.38
2023-05-10T21:37:57.292Z,98348.44
2023-05-10T21:40:59.903Z,98341.44
2023-05-10T21:44:03.824Z,98348.09
2023-05-10T21:47:06.502Z,98350.50
2023-05-10T21:50:10.398Z,98348.28
2023-05-10T21:53:13.117Z,98351.03
2023-05-10T21:56:15.880Z,98355.28
2023-05-10T21:59:21.423Z,98350.84
2023-05-10T22:02:24.088Z,98342.16
2023-05-10T22:05:27.082Z,98342.59
2023-05-10T22:08:29.809Z,98337.38
2023-05-10T22:11:32.464Z,98345.50
2023-05-10T22:14:36.593Z,98349.06
2023-05-10T22:17:40.334Z,98343.50
2023-05-10T22:20:45.584Z,98344.28
2023-05-10T22:23:48.422Z,98350.03
2023-05-10T22:26:51.423Z,98349.84
2023-05-10T22:29:55.360Z,98354.56
2023-05-10T22:32:59.989Z,98350.91
2023-05-10T22:36:02.664Z,98349.50
2023-05-10T22:39:05.456Z,98345.84
2023-05-10T22:42:08.129Z,98347.53
2023-05-10T22:45:12.957Z,98346.53
2023-05-10T22:48:16.073Z,98350.44
2023-05-10T22:51:18.688Z,98346.47
2023-05-10T22:54:21.376Z,98346.09
2023-05-10T22:57:24.444Z,98352.31
2023-05-10T23:00:28.385Z,98353.34
2023-05-10T23:03:31.141Z,98353.94
2023-05-10T23:06:33.968Z,98352.44
2023-05-10T23:09:36.671Z,98363.44
2023-05-10T23:12:39.416Z,98364.91
2023-05-10T23:15:43.583Z,98365.84
2023-05-10T23:18:46.229Z,98361.19
2023-05-10T23:21:48.951Z,98369.06
2023-05-10T23:24:51.506Z,98368.16
2023-05-10T23:27:54.240Z,98365.22
2023-05-10T23:30:59.002Z,98365.88
2023-05-10T23:34:01.698Z,98371.19
2023-05-10T23:37:04.325Z,98369.38
2023-05-10T23:40:08.352Z,98369.84
2023-05-10T23:43:10.888Z,98358.06
2023-05-10T23:46:14.877Z,98363.19
2023-05-10T23:49:18.231Z,98373.50
2023-05-10T23:52:22.761Z,98360.91
2023-05-10T23:55:25.312Z,98360.56
2023-05-10T23:58:27.780Z,98365.69
